createdAt,value
2023-05-06T00:00:26.969Z,58.16
2023-05-06T00:02:55.498Z,58.14
2023-05-06T00:05:24.029Z,58.13
2023-05-06T00:07:52.221Z,58.22
2023-05-06T00:10:21.359Z,58.27
2023-05-06T00:12:51.148Z,58.21
2023-05-06T00:15:19.553Z,58.18
2023-05-06T00:17:47.792Z,58.17
2023-05-06T00:20:16.167Z,58.14
2023-05-06T00:22:44.433Z,58.15
2023-05-06T00:25:12.720Z,58.22
2023-05-06T00:27:41.008Z,58.24
2023-05-06T00:30:12.597Z,58.00
2023-05-06T00:32:41.085Z,58.35
2023-05-06T00:35:10.610Z,58.46
2023-05-06T00:37:38.991Z,58.48
2023-05-06T00:40:08.746Z,58.44
2023-05-06T00:42:37.034Z,58.29
2023-05-06T00:45:06.028Z,58.22
2023-05-06T00:47:35.816Z,58.15
2023-05-06T00:50:04.765Z,58.23
2023-05-06T00:52:33.282Z,58.40
2023-05-06T00:55:01.614Z,58.45
2023-05-06T00:57:30.124Z,58.44
2023-05-06T00:59:58.568Z,58.47
2023-05-06T01:02:39.666Z,58.46
2023-05-06T01:05:17.123Z,58.31
2023-05-06T01:07:51.555Z,58.21
2023-05-06T01:10:25.793Z,58.11
2023-05-06T01:13:00.421Z,58.09
2023-05-06T01:15:34.298Z,58.25
2023-05-06T01:18:06.085Z,58.35
2023-05-06T01:20:38.374Z,58.22
2023-05-06T01:23:13.197Z,57.84
2023-05-06T01:25:41.819Z,58.22
2023-05-06T01:28:11.788Z,58.19
2023-05-06T01:30:47.993Z,57.80
2023-05-06T01:33:25.095Z,57.80
2023-05-06T01:36:03.516Z,57.76
2023-05-06T01:38:42.084Z,57.62
2023-05-06T01:41:17.501Z,57.78
2023-05-06T01:43:48.716Z,58.08
2023-05-06T01:46:20.881Z,58.00
2023-05-06T01:48:54.380Z,58.00
2023-05-06T01:51:25.260Z,58.25
2023-05-06T01:53:55.033Z,58.16
2023-05-06T01:56:24.454Z,58.26
2023-05-06T01:58:52.745Z,58.48
2023-05-06T02:01:21.084Z,58.54
2023-05-06T02:03:49.483Z,58.56
2023-05-06T02:06:18.456Z,58.58
2023-05-06T02:08:46.838Z,58.51
2023-05-06T02:11:21.246Z,58.47
2023-05-06T02:13:51.619Z,58.74
2023-05-06T02:16:21.963Z,59.01
2023-05-06T02:18:50.964Z,59.06
2023-05-06T02:21:19.308Z,59.06
2023-05-06T02:23:47.565Z,59.00
2023-05-06T02:26:16.583Z,58.88
2023-05-06T02:28:46.258Z,58.64
2023-05-06T02:31:15.952Z,58.65
2023-05-06T02:33:44.873Z,58.52
2023-05-06T02:36:13.372Z,58.43
2023-05-06T02:38:41.710Z,58.34
2023-05-06T02:41:10.706Z,58.22
2023-05-06T02:43:39.045Z,57.96
2023-05-06T02:46:08.791Z,57.87
2023-05-06T02:48:37.040Z,57.86
2023-05-06T02:51:06.340Z,57.85
2023-05-06T02:53:34.732Z,57.94
2023-05-06T02:56:02.900Z,58.05
2023-05-06T02:58:31.169Z,58.14
2023-05-06T03:00:59.510Z,58.22
2023-05-06T03:03:29.371Z,58.03
2023-05-06T03:05:57.622Z,58.06
2023-05-06T03:08:26.041Z,58.02
2023-05-06T03:10:54.327Z,58.07
2023-05-06T03:13:23.079Z,58.08
2023-05-06T03:15:54.972Z,58.13
2023-05-06T03:18:23.687Z,58.41
2023-05-06T03:20:53.773Z,58.32
2023-05-06T03:23:22.192Z,58.30
2023-05-06T03:25:50.752Z,58.37
2023-05-06T03:28:20.725Z,58.38
2023-05-06T03:30:50.461Z,58.37
2023-05-06T03:33:18.760Z,58.40
2023-05-06T03:35:46.979Z,58.51
2023-05-06T03:38:16.696Z,58.66
2023-05-06T03:40:51.768Z,58.67
2023-05-06T03:43:19.974Z,58.72
2023-05-06T03:45:51.491Z,58.81
2023-05-06T03:48:19.693Z,58.83
2023-05-06T03:50:48.015Z,58.79
2023-05-06T03:53:18.836Z,58.75
2023-05-06T03:55:48.872Z,58.91
2023-05-06T03:58:17.701Z,58.93
2023-05-06T04:00:47.427Z,58.95
2023-05-06T04:03:15.865Z,59.07
2023-05-06T04:05:47.640Z,59.16
2023-05-06T04:08:19.186Z,59.08
2023-05-06T04:10:47.820Z,59.17
2023-05-06T04:13:23.383Z,59.15
2023-05-06T04:15:52.485Z,59.08
2023-05-06T04:18:24.448Z,59.16
2023-05-06T04:21:03.153Z,59.18
2023-05-06T04:23:34.998Z,58.99
2023-05-06T04:26:03.240Z,59.25
2023-05-06T04:28:33.569Z,59.25
2023-05-06T04:31:02.246Z,59.29
2023-05-06T04:33:40.700Z,59.30
2023-05-06T04:36:12.955Z,59.35
2023-05-06T04:38:48.489Z,59.39
2023-05-06T04:41:17.304Z,59.41
2023-05-06T04:43:46.210Z,59.37
2023-05-06T04:46:21.059Z,59.36
2023-05-06T04:48:49.367Z,59.41
2023-05-06T04:51:19.172Z,59.45
2023-05-06T04:53:48.802Z,59.40
2023-05-06T04:56:16.990Z,59.69
2023-05-06T04:58:46.013Z,59.78
2023-05-06T05:01:14.551Z,59.61
2023-05-06T05:03:42.795Z,59.61
2023-05-06T05:06:11.517Z,59.57
2023-05-06T05:08:39.832Z,59.44
2023-05-06T05:11:10.467Z,59.40
2023-05-06T05:13:39.946Z,59.26
2023-05-06T05:16:08.126Z,59.25
2023-05-06T05:18:39.149Z,59.28
2023-05-06T05:21:14.731Z,59.14
2023-05-06T05:23:42.840Z,59.10
2023-05-06T05:26:12.320Z,59.04
2023-05-06T05:28:41.707Z,59.11
2023-05-06T05:31:10.613Z,58.99
2023-05-06T05:33:40.033Z,59.13
2023-05-06T05:36:15.329Z,59.48
2023-05-06T05:38:45.476Z,59.53
2023-05-06T05:41:16.119Z,59.45
2023-05-06T05:43:45.670Z,59.58
2023-05-06T05:46:14.158Z,59.51
2023-05-06T05:48:43.788Z,59.24
2023-05-06T05:51:12.496Z,59.23
2023-05-06T05:53:40.542Z,59.28
2023-05-06T05:56:09.270Z,59.28
2023-05-06T05:58:39.910Z,59.27
2023-05-06T06:01:08.026Z,59.29
2023-05-06T06:03:36.910Z,59.08
2023-05-06T06:06:06.949Z,59.25
2023-05-06T06:08:35.511Z,59.11
2023-05-06T06:11:05.881Z,58.79
2023-05-06T06:13:40.479Z,58.74
2023-05-06T06:16:09.362Z,58.81
2023-05-06T06:18:37.535Z,58.92
2023-05-06T06:21:05.908Z,58.97
2023-05-06T06:23:33.896Z,59.15
2023-05-06T06:26:03.876Z,59.25
2023-05-06T06:28:34.008Z,59.12
2023-05-06T06:31:03.589Z,59.12
2023-05-06T06:33:31.660Z,59.04
2023-05-06T06:35:59.758Z,59.17
2023-05-06T06:38:27.813Z,59.42
2023-05-06T06:40:55.837Z,59.38
2023-05-06T06:43:24.816Z,59.36
2023-05-06T06:45:59.318Z,59.86
2023-05-06T06:48:29.296Z,59.62
2023-05-06T06:50:57.367Z,60.25
2023-05-06T06:53:25.436Z,59.81
2023-05-06T06:55:53.444Z,59.61
2023-05-06T06:58:21.484Z,59.15
2023-05-06T07:00:49.570Z,58.83
2023-05-06T07:03:19.599Z,58.63
2023-05-06T07:05:49.532Z,57.86
2023-05-06T07:08:18.141Z,58.01
2023-05-06T07:10:46.201Z,57.93
2023-05-06T07:13:14.256Z,57.80
2023-05-06T07:15:42.400Z,57.90
2023-05-06T07:18:11.006Z,58.21
2023-05-06T07:20:39.128Z,57.57
2023-05-06T07:23:08.550Z,57.18
2023-05-06T07:25:36.793Z,57.23
2023-05-06T07:28:05.053Z,57.34
2023-05-06T07:30:33.417Z,57.46
2023-05-06T07:33:01.561Z,57.25
2023-05-06T07:35:29.720Z,57.17
2023-05-06T07:38:10.459Z,56.68
2023-05-06T07:40:40.310Z,56.75
2023-05-06T07:43:09.241Z,56.90
2023-05-06T07:45:37.385Z,56.70
2023-05-06T07:48:06.150Z,56.25
2023-05-06T07:50:34.447Z,55.94
2023-05-06T07:53:04.060Z,56.10
2023-05-06T07:55:33.922Z,55.90
2023-05-06T07:58:04.577Z,56.02
2023-05-06T08:00:32.634Z,55.96
2023-05-06T08:03:00.961Z,55.81
2023-05-06T08:05:29.100Z,54.81
2023-05-06T08:07:57.286Z,54.75
2023-05-06T08:10:25.500Z,54.84
2023-05-06T08:12:53.716Z,54.49
2023-05-06T08:15:23.231Z,54.68
2023-05-06T08:17:51.322Z,54.78
2023-05-06T08:20:19.396Z,54.71
2023-05-06T08:22:47.469Z,54.81
2023-05-06T08:25:15.595Z,54.39
2023-05-06T08:27:43.796Z,53.89
2023-05-06T08:30:13.035Z,53.91
2023-05-06T08:32:42.481Z,53.72
2023-05-06T08:35:11.246Z,53.62
2023-05-06T08:37:39.434Z,52.41
2023-05-06T08:40:17.980Z,52.52
2023-05-06T08:42:48.282Z,52.98
2023-05-06T08:45:17.680Z,52.72
2023-05-06T08:47:47.612Z,52.03
2023-05-06T08:50:16.638Z,52.24
2023-05-06T08:52:45.059Z,51.91
2023-05-06T08:55:13.771Z,50.92
2023-05-06T08:57:43.640Z,51.26
2023-05-06T09:00:12.874Z,51.31
2023-05-06T09:02:43.155Z,50.75
2023-05-06T09:05:13.143Z,50.35
2023-05-06T09:07:41.484Z,50.14
2023-05-06T09:10:14.288Z,49.82
2023-05-06T09:12:42.608Z,49.55
2023-05-06T09:15:12.007Z,49.45
2023-05-06T09:17:40.503Z,49.02
2023-05-06T09:20:14.346Z,48.73
2023-05-06T09:22:42.761Z,49.08
2023-05-06T09:25:12.108Z,48.21
2023-05-06T09:27:41.341Z,48.61
2023-05-06T09:30:11.980Z,49.19
2023-05-06T09:32:40.971Z,48.96
2023-05-06T09:35:10.628Z,48.71
2023-05-06T09:37:40.765Z,48.43
2023-05-06T09:40:10.397Z,48.44
2023-05-06T09:42:39.653Z,49.37
2023-05-06T09:45:10.936Z,49.40
2023-05-06T09:47:39.394Z,49.37
2023-05-06T09:50:11.308Z,46.78
2023-05-06T09:52:41.346Z,46.93
2023-05-06T09:55:12.277Z,47.42
2023-05-06T09:57:42.238Z,47.08
2023-05-06T10:00:12.115Z,46.16
2023-05-06T10:02:44.127Z,45.05
2023-05-06T10:05:14.046Z,46.02
2023-05-06T10:07:44.381Z,43.30
2023-05-06T10:10:13.447Z,42.45
2023-05-06T10:12:41.582Z,42.41
2023-05-06T10:15:11.025Z,41.41
2023-05-06T10:17:40.906Z,42.61
2023-05-06T10:20:14.851Z,43.44
2023-05-06T10:22:54.391Z,42.45
2023-05-06T10:25:31.520Z,43.71
2023-05-06T10:28:01.428Z,39.45
2023-05-06T10:30:31.348Z,41.55
2023-05-06T10:33:04.590Z,41.16
2023-05-06T10:35:43.422Z,40.84
2023-05-06T10:38:17.769Z,39.56
2023-05-06T10:40:46.876Z,38.76
2023-05-06T10:43:24.607Z,38.75
2023-05-06T10:46:01.598Z,39.39
2023-05-06T10:48:30.021Z,37.18
2023-05-06T10:51:27.329Z,37.05
2023-05-06T10:54:02.458Z,38.16
2023-05-06T10:56:33.041Z,38.20
2023-05-06T10:59:08.072Z,36.69
2023-05-06T11:01:37.051Z,36.32
2023-05-06T11:04:09.803Z,36.58
2023-05-06T11:06:43.034Z,36.34
2023-05-06T11:09:20.486Z,37.92
2023-05-06T11:11:54.558Z,37.06
2023-05-06T11:14:32.764Z,36.43
2023-05-06T11:17:02.582Z,33.73
2023-05-06T11:19:31.573Z,35.06
2023-05-06T11:22:01.183Z,35.26
2023-05-06T11:24:31.733Z,34.08
2023-05-06T11:27:01.332Z,35.60
2023-05-06T11:29:29.873Z,32.96
2023-05-06T11:31:58.761Z,34.53
2023-05-06T11:34:29.815Z,33.00
2023-05-06T11:37:02.229Z,32.15
2023-05-06T11:39:36.681Z,32.86
2023-05-06T11:42:09.148Z,32.01
2023-05-06T11:44:38.580Z,29.39
2023-05-06T11:47:08.527Z,29.68
2023-05-06T11:49:38.386Z,31.31
2023-05-06T11:52:06.836Z,29.39
2023-05-06T11:54:39.361Z,29.81
2023-05-06T11:57:07.489Z,31.37
2023-05-06T11:59:37.494Z,31.73
2023-05-06T12:02:06.851Z,30.93
2023-05-06T12:04:42.307Z,31.04
2023-05-06T12:07:12.531Z,31.04
2023-05-06T12:09:45.705Z,31.39
2023-05-06T12:12:17.603Z,31.84
2023-05-06T12:14:46.817Z,31.41
2023-05-06T12:17:15.567Z,31.10
2023-05-06T12:19:43.773Z,30.97
2023-05-06T12:22:19.424Z,29.38
2023-05-06T12:24:49.853Z,30.71
2023-05-06T12:27:30.732Z,31.32
2023-05-06T12:29:58.769Z,32.64
2023-05-06T12:32:26.846Z,33.50
2023-05-06T12:34:56.029Z,32.02
2023-05-06T12:37:29.572Z,31.51
2023-05-06T12:39:59.671Z,32.92
2023-05-06T12:42:28.055Z,34.11
2023-05-06T12:44:56.301Z,32.73
2023-05-06T12:47:26.022Z,33.34
2023-05-06T12:49:55.958Z,33.51
2023-05-06T12:52:25.316Z,34.49
2023-05-06T12:54:53.716Z,33.78
2023-05-06T12:57:23.399Z,33.59
2023-05-06T12:59:51.527Z,34.23
2023-05-06T13:02:19.638Z,34.34
2023-05-06T13:04:47.706Z,33.67
2023-05-06T13:07:15.737Z,34.35
2023-05-06T13:09:44.564Z,35.05
2023-05-06T13:12:13.181Z,33.86
2023-05-06T13:14:42.625Z,32.74
2023-05-06T13:17:11.227Z,32.54
2023-05-06T13:19:39.975Z,33.71
2023-05-06T13:22:08.123Z,34.44
2023-05-06T13:24:36.527Z,35.04
2023-05-06T13:27:04.588Z,35.24
2023-05-06T13:29:32.685Z,34.44
2023-05-06T13:32:02.139Z,35.56
2023-05-06T13:34:30.192Z,35.72
2023-05-06T13:36:59.407Z,36.29
2023-05-06T13:39:27.463Z,36.20
2023-05-06T13:41:55.469Z,36.08
2023-05-06T13:44:24.532Z,36.70
2023-05-06T13:46:52.910Z,36.28
2023-05-06T13:49:22.404Z,36.68
2023-05-06T13:51:50.535Z,36.37
2023-05-06T13:54:18.683Z,37.32
2023-05-06T13:56:46.871Z,37.62
2023-05-06T13:59:14.972Z,37.44
2023-05-06T14:01:43.564Z,36.88
2023-05-06T14:04:12.374Z,37.27
2023-05-06T14:06:41.903Z,37.40
2023-05-06T14:09:13.072Z,37.53
2023-05-06T14:11:41.216Z,37.27
2023-05-06T14:14:09.590Z,38.36
2023-05-06T14:16:37.788Z,38.30
2023-05-06T14:19:06.055Z,38.30
2023-05-06T14:21:34.639Z,38.14
2023-05-06T14:24:06.124Z,37.91
2023-05-06T14:26:35.530Z,38.10
2023-05-06T14:29:03.824Z,38.79
2023-05-06T14:31:33.644Z,38.46
2023-05-06T14:34:03.093Z,38.89
2023-05-06T14:36:31.286Z,38.73
2023-05-06T14:38:59.339Z,38.88
2023-05-06T14:41:28.767Z,39.06
2023-05-06T14:43:56.800Z,39.22
2023-05-06T14:46:27.013Z,39.23
2023-05-06T14:48:56.893Z,39.09
2023-05-06T14:51:25.023Z,39.17
2023-05-06T14:53:55.814Z,39.57
2023-05-06T14:56:23.877Z,39.63
2023-05-06T14:58:53.267Z,40.09
2023-05-06T15:01:21.555Z,40.14
2023-05-06T15:03:50.735Z,40.19
2023-05-06T15:06:18.826Z,40.57
2023-05-06T15:08:47.078Z,40.75
2023-05-06T15:11:15.526Z,41.28
2023-05-06T15:13:43.579Z,42.29
2023-05-06T15:16:13.082Z,42.97
2023-05-06T15:18:41.897Z,43.99
2023-05-06T15:21:09.984Z,44.90
2023-05-06T15:23:38.585Z,45.73
2023-05-06T15:26:06.697Z,47.29
2023-05-06T15:28:34.761Z,47.89
2023-05-06T15:31:03.938Z,48.14
2023-05-06T15:33:33.450Z,48.47
2023-05-06T15:36:01.510Z,49.02
2023-05-06T15:38:29.806Z,49.12
2023-05-06T15:40:57.789Z,49.50
2023-05-06T15:45:59.468Z,49.97
2023-05-06T15:48:30.849Z,50.31
2023-05-06T15:51:00.297Z,50.41
2023-05-06T15:53:28.951Z,50.43
2023-05-06T15:56:02.162Z,50.69
2023-05-06T15:58:41.964Z,50.63
2023-05-06T16:01:10.795Z,50.82
2023-05-06T16:03:41.134Z,51.04
2023-05-06T16:06:12.248Z,51.07
2023-05-06T16:08:40.283Z,51.13
2023-05-06T16:11:09.397Z,51.29
2023-05-06T16:13:37.459Z,51.54
2023-05-06T16:16:06.368Z,51.76
2023-05-06T16:18:34.932Z,52.07
2023-05-06T16:21:04.450Z,52.16
2023-05-06T16:23:34.183Z,52.37
2023-05-06T16:26:02.756Z,52.44
2023-05-06T16:28:31.474Z,52.67
2023-05-06T16:30:59.520Z,52.46
2023-05-06T16:33:27.640Z,52.43
2023-05-06T16:35:56.013Z,52.70
2023-05-06T16:38:24.723Z,52.88
2023-05-06T16:40:54.290Z,53.00
2023-05-06T16:43:22.527Z,53.10
2023-05-06T16:45:50.787Z,53.20
2023-05-06T16:48:19.169Z,53.36
2023-05-06T16:51:22.753Z,53.85
2023-05-06T16:53:56.685Z,54.15
2023-05-06T16:56:51.959Z,53.89
2023-05-06T16:59:22.427Z,54.33
2023-05-06T17:01:50.959Z,54.43
2023-05-06T17:04:18.996Z,54.50
2023-05-06T17:06:47.376Z,54.69
2023-05-06T17:09:16.409Z,54.79
2023-05-06T17:11:45.990Z,54.84
2023-05-06T17:14:15.066Z,54.91
2023-05-06T17:16:45.223Z,54.94
2023-05-06T17:19:13.501Z,55.07
2023-05-06T17:21:41.627Z,55.11
2023-05-06T17:24:09.779Z,55.14
2023-05-06T17:26:38.704Z,55.22
2023-05-06T17:29:08.980Z,55.11
2023-05-06T17:31:37.096Z,55.19
2023-05-06T17:34:05.186Z,55.33
2023-05-06T17:36:33.318Z,55.32
2023-05-06T17:39:06.326Z,55.00
2023-05-06T17:41:34.562Z,55.21
2023-05-06T17:44:02.742Z,55.29
2023-05-06T17:46:33.346Z,55.24
2023-05-06T17:49:01.558Z,55.27
2023-05-06T17:51:29.625Z,55.34
2023-05-06T17:53:58.656Z,55.34
2023-05-06T17:56:27.355Z,55.26
2023-05-06T17:58:56.525Z,55.25
2023-05-06T18:01:24.626Z,55.25
2023-05-06T18:03:54.219Z,55.19
2023-05-06T18:06:22.395Z,55.19
2023-05-06T18:08:50.431Z,55.25
2023-05-06T18:11:18.720Z,55.38
2023-05-06T18:13:46.726Z,55.44
2023-05-06T18:16:14.852Z,55.45
2023-05-06T18:18:43.799Z,55.52
2023-05-06T18:21:13.166Z,55.61
2023-05-06T18:23:41.196Z,55.71
2023-05-06T18:26:09.263Z,55.80
2023-05-06T18:28:38.137Z,55.90
2023-05-06T18:31:06.214Z,56.00
2023-05-06T18:33:35.542Z,56.08
2023-05-06T18:36:03.585Z,56.18
2023-05-06T18:38:33.020Z,56.11
2023-05-06T18:41:02.769Z,56.24
2023-05-06T18:43:31.273Z,56.47
2023-05-06T18:45:59.355Z,56.67
2023-05-06T18:48:28.110Z,56.80
2023-05-06T18:50:56.162Z,56.87
2023-05-06T18:53:24.183Z,56.99
2023-05-06T18:55:53.590Z,56.93
2023-05-06T18:58:21.926Z,57.28
2023-05-06T19:00:50.032Z,57.39
2023-05-06T19:03:18.264Z,57.42
2023-05-06T19:05:46.345Z,57.36
2023-05-06T19:08:16.173Z,57.41
2023-05-06T19:10:44.196Z,57.46
2023-05-06T19:13:13.594Z,57.42
2023-05-06T19:15:41.631Z,57.48
2023-05-06T19:18:09.811Z,57.50
2023-05-06T19:20:38.134Z,57.53
2023-05-06T19:23:06.225Z,57.55
2023-05-06T19:25:36.253Z,57.57
2023-05-06T19:28:04.288Z,57.61
2023-05-06T19:30:35.921Z,57.59
2023-05-06T19:33:04.593Z,57.96
2023-05-06T19:35:32.712Z,57.96
2023-05-06T19:38:00.785Z,58.04
2023-05-06T19:40:29.078Z,58.03
2023-05-06T19:43:03.621Z,58.24
2023-05-06T19:45:33.609Z,58.21
2023-05-06T19:48:04.075Z,58.06
2023-05-06T19:50:32.962Z,58.11
2023-05-06T19:53:00.979Z,58.12
2023-05-06T19:55:28.940Z,58.33
2023-05-06T19:57:57.138Z,57.96
2023-05-06T20:00:27.308Z,57.97
2023-05-06T20:02:58.797Z,57.67
2023-05-06T20:05:29.621Z,58.00
2023-05-06T20:07:59.665Z,58.08
2023-05-06T20:10:28.155Z,57.90
2023-05-06T20:12:57.831Z,57.76
2023-05-06T20:15:26.596Z,57.67
2023-05-06T20:17:56.091Z,57.58
2023-05-06T20:20:24.313Z,57.55
2023-05-06T20:22:52.329Z,57.58
2023-05-06T20:25:21.404Z,57.61
2023-05-06T20:27:49.470Z,57.62
2023-05-06T20:30:17.711Z,57.71
2023-05-06T20:32:47.249Z,57.72
2023-05-06T20:35:17.743Z,57.63
2023-05-06T20:37:46.037Z,57.84
2023-05-06T20:40:15.878Z,58.13
2023-05-06T20:42:44.115Z,58.01
2023-05-06T20:45:12.520Z,58.02
2023-05-06T20:47:40.954Z,57.97
2023-05-06T20:50:09.765Z,57.87
2023-05-06T20:52:39.326Z,57.61
2023-05-06T20:55:08.362Z,57.51
2023-05-06T20:57:42.439Z,57.44
2023-05-06T21:00:11.536Z,57.67
2023-05-06T21:02:41.879Z,57.67
2023-05-06T21:05:11.335Z,57.61
2023-05-06T21:07:41.243Z,57.51
2023-05-06T21:10:11.478Z,57.58
2023-05-06T21:12:39.654Z,57.72
2023-05-06T21:15:09.294Z,57.67
2023-05-06T21:17:37.703Z,57.56
2023-05-06T21:20:06.629Z,57.50
2023-05-06T21:22:34.672Z,57.52
2023-05-06T21:25:05.237Z,57.40
2023-05-06T21:27:33.345Z,57.45
2023-05-06T21:30:01.409Z,57.76
2023-05-06T21:32:32.849Z,57.56
2023-05-06T21:35:03.151Z,57.48
2023-05-06T21:37:31.286Z,57.58
2023-05-06T21:40:00.078Z,57.67
2023-05-06T21:42:29.998Z,57.66
2023-05-06T21:44:58.017Z,57.77
2023-05-06T21:47:26.874Z,57.89
2023-05-06T21:49:54.904Z,58.19
2023-05-06T21:52:22.975Z,58.18
2023-05-06T21:54:51.039Z,57.99
2023-05-06T21:57:19.156Z,57.81
2023-05-06T21:59:48.592Z,57.92
2023-05-06T22:02:16.634Z,58.11
2023-05-06T22:04:44.716Z,58.25
2023-05-06T22:07:12.739Z,58.25
2023-05-06T22:09:40.788Z,58.32
2023-05-06T22:12:11.577Z,58.38
2023-05-06T22:14:41.481Z,58.34
2023-05-06T22:17:12.705Z,58.35
2023-05-06T22:19:41.708Z,58.10
2023-05-06T22:22:10.025Z,58.57
2023-05-06T22:24:38.077Z,58.67
2023-05-06T22:27:06.183Z,58.65
2023-05-06T22:29:35.054Z,58.72
2023-05-06T22:32:03.480Z,58.75
2023-05-06T22:34:33.160Z,58.72
2023-05-06T22:37:01.389Z,58.96
2023-05-06T22:39:29.669Z,58.77
2023-05-06T22:41:57.702Z,58.92
2023-05-06T22:44:25.749Z,59.07
2023-05-06T22:46:54.866Z,59.12
2023-05-06T22:49:23.540Z,59.07
2023-05-06T22:51:53.292Z,59.22
2023-05-06T22:54:21.377Z,59.35
2023-05-06T22:56:49.415Z,59.46
2023-05-06T22:59:17.459Z,59.80
2023-05-06T23:01:45.611Z,60.02
2023-05-06T23:04:13.750Z,59.80
2023-05-06T23:06:42.356Z,59.52
2023-05-06T23:09:12.549Z,59.48
2023-05-06T23:11:40.781Z,59.71
2023-05-06T23:14:08.850Z,59.52
2023-05-06T23:16:36.982Z,59.35
2023-05-06T23:19:05.118Z,59.23
2023-05-06T23:21:33.154Z,59.27
2023-05-06T23:24:01.562Z,59.19
2023-05-06T23:26:30.938Z,59.14
2023-05-06T23:28:59.007Z,59.09
2023-05-06T23:31:27.090Z,59.25
2023-05-06T23:33:55.215Z,59.21
2023-05-06T23:36:23.293Z,59.06
2023-05-06T23:38:51.293Z,59.34
2023-05-06T23:41:19.299Z,59.28
2023-05-06T23:43:48.699Z,59.27
2023-05-06T23:46:16.847Z,59.07
2023-05-06T23:48:44.877Z,58.98
2023-05-06T23:51:12.886Z,58.96
2023-05-06T23:53:40.971Z,58.82
2023-05-06T23:56:09.067Z,58.75
2023-05-06T23:58:37.082Z,58.93
